sensor_id;sensor_type;location;lat;lon;timestamp;P1;durP1;ratioP1;P2;durP2;ratioP2
4597;SDS011;62772;48.646;8.906;2023-04-24T00:04:53;4.87;;;1.90;;
4597;SDS011;62772;48.646;8.906;2023-04-24T00:09:54;2.77;;;1.80;;
4597;SDS011;62772;48.646;8.906;2023-04-24T00:14:54;3.70;;;1.97;;
4597;SDS011;62772;48.646;8.906;2023-04-24T00:19:55;3.40;;;1.90;;
4597;SDS011;62772;48.646;8.906;2023-04-24T00:24:58;2.63;;;1.40;;
4597;SDS011;62772;48.646;8.906;2023-04-24T00:29:58;2.60;;;1.60;;
4597;SDS011;62772;48.646;8.906;2023-04-24T00:34:59;2.40;;;1.60;;
4597;SDS011;62772;48.646;8.906;2023-04-24T00:39:59;2.50;;;1.80;;
4597;SDS011;62772;48.646;8.906;2023-04-24T00:45:00;3.40;;;1.80;;
4597;SDS011;62772;48.646;8.906;2023-04-24T00:50:02;2.90;;;1.80;;
4597;SDS011;62772;48.646;8.906;2023-04-24T00:55:03;2.67;;;1.50;;
4597;SDS011;62772;48.646;8.906;2023-04-24T01:00:05;4.13;;;1.73;;
4597;SDS011;62772;48.646;8.906;2023-04-24T01:05:11;3.33;;;1.80;;
4597;SDS011;62772;48.646;8.906;2023-04-24T01:10:13;2.80;;;2.00;;
4597;SDS011;62772;48.646;8.906;2023-04-24T01:15:14;2.93;;;2.07;;
4597;SDS011;62772;48.646;8.906;2023-04-24T01:20:16;6.40;;;2.23;;
4597;SDS011;62772;48.646;8.906;2023-04-24T01:25:17;2.77;;;1.67;;
4597;SDS011;62772;48.646;8.906;2023-04-24T01:30:17;2.80;;;1.83;;
4597;SDS011;62772;48.646;8.906;2023-04-24T01:35:18;4.50;;;1.87;;
4597;SDS011;62772;48.646;8.906;2023-04-24T01:40:20;2.77;;;1.93;;
4597;SDS011;62772;48.646;8.906;2023-04-24T01:45:20;4.70;;;2.10;;
4597;SDS011;62772;48.646;8.906;2023-04-24T01:50:20;4.10;;;1.90;;
4597;SDS011;62772;48.646;8.906;2023-04-24T01:55:21;3.10;;;1.77;;
4597;SDS011;62772;48.646;8.906;2023-04-24T02:00:21;4.80;;;2.23;;
4597;SDS011;62772;48.646;8.906;2023-04-24T02:05:22;4.53;;;2.07;;
4597;SDS011;62772;48.646;8.906;2023-04-24T02:10:22;3.10;;;1.90;;
4597;SDS011;62772;48.646;8.906;2023-04-24T02:15:23;4.67;;;2.20;;
4597;SDS011;62772;48.646;8.906;2023-04-24T02:20:23;4.67;;;2.57;;
4597;SDS011;62772;48.646;8.906;2023-04-24T02:25:24;5.60;;;1.80;;
4597;SDS011;62772;48.646;8.906;2023-04-24T02:30:24;3.57;;;2.20;;
4597;SDS011;62772;48.646;8.906;2023-04-24T02:35:25;2.77;;;1.60;;
4597;SDS011;62772;48.646;8.906;2023-04-24T02:40:25;2.90;;;2.10;;
4597;SDS011;62772;48.646;8.906;2023-04-24T02:45:26;4.23;;;2.00;;
4597;SDS011;62772;48.646;8.906;2023-04-24T02:50:27;3.53;;;1.83;;
4597;SDS011;62772;48.646;8.906;2023-04-24T02:55:28;6.57;;;2.13;;
4597;SDS011;62772;48.646;8.906;2023-04-24T03:00:29;3.23;;;1.87;;
4597;SDS011;62772;48.646;8.906;2023-04-24T03:05:30;4.20;;;1.80;;
4597;SDS011;62772;48.646;8.906;2023-04-24T03:10:31;4.47;;;2.00;;
4597;SDS011;62772;48.646;8.906;2023-04-24T03:15:32;4.00;;;1.77;;
4597;SDS011;62772;48.646;8.906;2023-04-24T03:20:33;2.77;;;1.90;;
4597;SDS011;62772;48.646;8.906;2023-04-24T03:25:33;5.33;;;2.03;;
4597;SDS011;62772;48.646;8.906;2023-04-24T03:30:34;3.20;;;2.30;;
4597;SDS011;62772;48.646;8.906;2023-04-24T03:35:35;3.33;;;2.13;;
4597;SDS011;62772;48.646;8.906;2023-04-24T03:40:40;3.00;;;1.90;;
4597;SDS011;62772;48.646;8.906;2023-04-24T03:45:54;4.07;;;1.80;;
4597;SDS011;62772;48.646;8.906;2023-04-24T03:50:55;2.47;;;1.73;;
4597;SDS011;62772;48.646;8.906;2023-04-24T03:55:56;2.93;;;1.70;;
4597;SDS011;62772;48.646;8.906;2023-04-24T04:00:58;2.30;;;1.60;;
4597;SDS011;62772;48.646;8.906;2023-04-24T04:06:20;2.67;;;1.80;;
4597;SDS011;62772;48.646;8.906;2023-04-24T04:11:22;2.60;;;1.77;;
4597;SDS011;62772;48.646;8.906;2023-04-24T04:16:24;2.87;;;1.80;;
4597;SDS011;62772;48.646;8.906;2023-04-24T04:21:29;2.97;;;1.93;;
4597;SDS011;62772;48.646;8.906;2023-04-24T04:26:41;3.10;;;2.00;;
4597;SDS011;62772;48.646;8.906;2023-04-24T04:31:47;4.67;;;2.00;;
4597;SDS011;62772;48.646;8.906;2023-04-24T04:36:48;4.23;;;2.60;;
4597;SDS011;62772;48.646;8.906;2023-04-24T04:42:06;3.37;;;2.53;;
4597;SDS011;62772;48.646;8.906;2023-04-24T04:47:13;3.67;;;2.20;;
4597;SDS011;62772;48.646;8.906;2023-04-24T04:52:14;4.47;;;2.70;;
4597;SDS011;62772;48.646;8.906;2023-04-24T04:57:17;4.90;;;3.00;;
4597;SDS011;62772;48.646;8.906;2023-04-24T05:02:18;6.20;;;3.17;;
4597;SDS011;62772;48.646;8.906;2023-04-24T05:07:20;3.60;;;2.73;;
4597;SDS011;62772;48.646;8.906;2023-04-24T05:12:24;4.97;;;2.90;;
4597;SDS011;62772;48.646;8.906;2023-04-24T05:17:27;4.93;;;3.23;;
4597;SDS011;62772;48.646;8.906;2023-04-24T05:22:29;4.63;;;3.20;;
4597;SDS011;62772;48.646;8.906;2023-04-24T05:27:30;6.23;;;3.60;;
4597;SDS011;62772;48.646;8.906;2023-04-24T05:32:31;5.17;;;3.63;;
4597;SDS011;62772;48.646;8.906;2023-04-24T05:37:32;5.77;;;4.13;;
4597;SDS011;62772;48.646;8.906;2023-04-24T05:42:33;5.73;;;4.13;;
4597;SDS011;62772;48.646;8.906;2023-04-24T05:47:34;7.57;;;4.60;;
4597;SDS011;62772;48.646;8.906;2023-04-24T05:52:34;5.67;;;4.03;;
4597;SDS011;62772;48.646;8.906;2023-04-24T05:57:39;6.07;;;3.97;;
4597;SDS011;62772;48.646;8.906;2023-04-24T06:02:40;6.47;;;4.20;;
4597;SDS011;62772;48.646;8.906;2023-04-24T06:07:44;5.53;;;3.63;;
4597;SDS011;62772;48.646;8.906;2023-04-24T06:12:46;6.73;;;3.60;;
4597;SDS011;62772;48.646;8.906;2023-04-24T06:17:50;6.73;;;3.67;;
4597;SDS011;62772;48.646;8.906;2023-04-24T06:22:52;7.13;;;3.80;;
4597;SDS011;62772;48.646;8.906;2023-04-24T06:27:53;9.47;;;4.10;;
4597;SDS011;62772;48.646;8.906;2023-04-24T06:32:54;5.90;;;3.70;;
4597;SDS011;62772;48.646;8.906;2023-04-24T06:37:54;4.30;;;3.37;;
4597;SDS011;62772;48.646;8.906;2023-04-24T06:42:56;6.40;;;3.80;;
4597;SDS011;62772;48.646;8.906;2023-04-24T06:47:58;4.17;;;3.30;;
4597;SDS011;62772;48.646;8.906;2023-04-24T06:52:58;6.53;;;3.60;;
4597;SDS011;62772;48.646;8.906;2023-04-24T06:57:58;3.90;;;2.90;;
4597;SDS011;62772;48.646;8.906;2023-04-24T07:02:59;4.47;;;2.23;;
4597;SDS011;62772;48.646;8.906;2023-04-24T07:07:59;6.40;;;3.60;;
4597;SDS011;62772;48.646;8.906;2023-04-24T07:13:00;3.10;;;2.30;;
4597;SDS011;62772;48.646;8.906;2023-04-24T07:18:01;4.00;;;2.77;;
4597;SDS011;62772;48.646;8.906;2023-04-24T07:23:02;4.37;;;3.30;;
4597;SDS011;62772;48.646;8.906;2023-04-24T07:28:02;5.63;;;2.90;;
4597;SDS011;62772;48.646;8.906;2023-04-24T07:33:04;4.97;;;2.70;;
4597;SDS011;62772;48.646;8.906;2023-04-24T07:38:04;5.17;;;2.97;;
4597;SDS011;62772;48.646;8.906;2023-04-24T07:43:05;4.50;;;2.83;;
4597;SDS011;62772;48.646;8.906;2023-04-24T07:48:06;5.93;;;2.73;;
4597;SDS011;62772;48.646;8.906;2023-04-24T07:53:06;6.37;;;3.50;;
4597;SDS011;62772;48.646;8.906;2023-04-24T07:58:06;5.67;;;3.30;;
4597;SDS011;62772;48.646;8.906;2023-04-24T08:03:07;4.30;;;3.00;;
4597;SDS011;62772;48.646;8.906;2023-04-24T08:08:08;4.30;;;3.30;;
4597;SDS011;62772;48.646;8.906;2023-04-24T08:13:08;4.50;;;3.23;;
4597;SDS011;62772;48.646;8.906;2023-04-24T08:18:09;5.70;;;3.10;;
4597;SDS011;62772;48.646;8.906;2023-04-24T08:23:11;6.20;;;2.93;;
4597;SDS011;62772;48.646;8.906;2023-04-24T08:28:12;6.80;;;3.30;;
4597;SDS011;62772;48.646;8.906;2023-04-24T08:33:13;5.13;;;2.67;;
4597;SDS011;62772;48.646;8.906;2023-04-24T08:38:15;3.83;;;3.17;;
4597;SDS011;62772;48.646;8.906;2023-04-24T08:43:16;4.50;;;2.97;;
4597;SDS011;62772;48.646;8.906;2023-04-24T08:48:17;4.37;;;2.90;;
4597;SDS011;62772;48.646;8.906;2023-04-24T08:53:18;7.00;;;3.60;;
4597;SDS011;62772;48.646;8.906;2023-04-24T08:58:19;4.00;;;2.80;;
4597;SDS011;62772;48.646;8.906;2023-04-24T09:03:21;3.80;;;2.27;;
4597;SDS011;62772;48.646;8.906;2023-04-24T09:08:22;3.47;;;2.50;;
4597;SDS011;62772;48.646;8.906;2023-04-24T09:13:25;3.23;;;2.50;;
4597;SDS011;62772;48.646;8.906;2023-04-24T09:18:26;4.03;;;2.00;;
4597;SDS011;62772;48.646;8.906;2023-04-24T09:23:27;4.00;;;2.13;;
4597;SDS011;62772;48.646;8.906;2023-04-24T09:28:30;4.20;;;2.50;;
4597;SDS011;62772;48.646;8.906;2023-04-24T09:33:31;4.87;;;2.50;;
4597;SDS011;62772;48.646;8.906;2023-04-24T09:43:32;5.27;;;2.40;;
4597;SDS011;62772;48.646;8.906;2023-04-24T09:48:34;3.17;;;2.00;;
4597;SDS011;62772;48.646;8.906;2023-04-24T09:53:35;2.60;;;1.80;;
4597;SDS011;62772;48.646;8.906;2023-04-24T09:58:40;3.63;;;2.30;;
4597;SDS011;62772;48.646;8.906;2023-04-24T10:03:41;2.70;;;2.00;;
4597;SDS011;62772;48.646;8.906;2023-04-24T10:08:42;3.20;;;2.27;;
4597;SDS011;62772;48.646;8.906;2023-04-24T10:13:43;4.97;;;2.50;;
4597;SDS011;62772;48.646;8.906;2023-04-24T10:18:43;3.67;;;2.20;;
4597;SDS011;62772;48.646;8.906;2023-04-24T10:23:44;3.53;;;2.17;;
4597;SDS011;62772;48.646;8.906;2023-04-24T10:28:46;4.80;;;2.20;;
4597;SDS011;62772;48.646;8.906;2023-04-24T10:33:47;5.20;;;2.50;;
4597;SDS011;62772;48.646;8.906;2023-04-24T10:38:51;5.17;;;2.67;;
4597;SDS011;62772;48.646;8.906;2023-04-24T10:49:12;3.87;;;2.10;;
4597;SDS011;62772;48.646;8.906;2023-04-24T10:59:35;3.00;;;2.13;;
4597;SDS011;62772;48.646;8.906;2023-04-24T11:04:37;4.83;;;2.90;;
4597;SDS011;62772;48.646;8.906;2023-04-24T11:09:37;3.10;;;2.37;;
4597;SDS011;62772;48.646;8.906;2023-04-24T11:20:10;4.07;;;2.10;;
4597;SDS011;62772;48.646;8.906;2023-04-24T11:25:11;3.00;;;2.07;;
4597;SDS011;62772;48.646;8.906;2023-04-24T11:30:12;4.07;;;2.20;;
4597;SDS011;62772;48.646;8.906;2023-04-24T11:35:17;4.20;;;2.37;;
4597;SDS011;62772;48.646;8.906;2023-04-24T11:40:19;3.80;;;2.40;;
4597;SDS011;62772;48.646;8.906;2023-04-24T11:45:23;3.63;;;2.40;;
4597;SDS011;62772;48.646;8.906;2023-04-24T11:50:26;3.20;;;2.00;;
4597;SDS011;62772;48.646;8.906;2023-04-24T11:55:28;3.60;;;2.40;;
4597;SDS011;62772;48.646;8.906;2023-04-24T12:00:30;5.60;;;2.40;;
4597;SDS011;62772;48.646;8.906;2023-04-24T12:05:34;4.33;;;2.40;;
4597;SDS011;62772;48.646;8.906;2023-04-24T12:10:35;4.47;;;2.60;;
4597;SDS011;62772;48.646;8.906;2023-04-24T12:15:36;3.70;;;2.60;;
4597;SDS011;62772;48.646;8.906;2023-04-24T12:20:40;2.83;;;2.30;;
4597;SDS011;62772;48.646;8.906;2023-04-24T12:25:41;3.60;;;2.60;;
4597;SDS011;62772;48.646;8.906;2023-04-24T12:30:43;3.67;;;2.30;;
4597;SDS011;62772;48.646;8.906;2023-04-24T12:35:44;2.60;;;2.20;;
4597;SDS011;62772;48.646;8.906;2023-04-24T12:40:45;4.00;;;2.47;;
4597;SDS011;62772;48.646;8.906;2023-04-24T12:45:47;3.03;;;2.23;;
4597;SDS011;62772;48.646;8.906;2023-04-24T12:50:48;4.20;;;2.70;;
4597;SDS011;62772;48.646;8.906;2023-04-24T12:55:49;5.33;;;2.53;;
4597;SDS011;62772;48.646;8.906;2023-04-24T13:00:53;4.50;;;2.87;;
4597;SDS011;62772;48.646;8.906;2023-04-24T13:05:54;12.03;;;4.90;;
4597;SDS011;62772;48.646;8.906;2023-04-24T13:10:54;4.37;;;2.77;;
4597;SDS011;62772;48.646;8.906;2023-04-24T13:15:55;7.63;;;3.87;;
4597;SDS011;62772;48.646;8.906;2023-04-24T13:20:55;5.87;;;3.20;;
4597;SDS011;62772;48.646;8.906;2023-04-24T13:25:56;4.17;;;2.90;;
4597;SDS011;62772;48.646;8.906;2023-04-24T13:30:58;5.93;;;3.30;;
4597;SDS011;62772;48.646;8.906;2023-04-24T13:35:58;5.40;;;3.13;;
4597;SDS011;62772;48.646;8.906;2023-04-24T13:41:00;7.07;;;3.80;;
4597;SDS011;62772;48.646;8.906;2023-04-24T13:46:00;3.77;;;2.77;;
4597;SDS011;62772;48.646;8.906;2023-04-24T13:51:03;5.50;;;2.80;;
4597;SDS011;62772;48.646;8.906;2023-04-24T13:56:03;5.60;;;3.23;;
4597;SDS011;62772;48.646;8.906;2023-04-24T14:01:04;5.63;;;3.10;;
4597;SDS011;62772;48.646;8.906;2023-04-24T14:06:05;4.73;;;3.00;;
4597;SDS011;62772;48.646;8.906;2023-04-24T14:11:06;4.40;;;3.10;;
4597;SDS011;62772;48.646;8.906;2023-04-24T14:16:07;5.43;;;3.30;;
4597;SDS011;62772;48.646;8.906;2023-04-24T14:21:07;4.70;;;3.10;;
4597;SDS011;62772;48.646;8.906;2023-04-24T14:26:08;10.30;;;4.30;;
4597;SDS011;62772;48.646;8.906;2023-04-24T14:31:08;4.67;;;3.03;;
4597;SDS011;62772;48.646;8.906;2023-04-24T14:36:09;5.00;;;3.40;;
4597;SDS011;62772;48.646;8.906;2023-04-24T14:41:10;4.00;;;3.00;;
4597;SDS011;62772;48.646;8.906;2023-04-24T14:46:11;10.50;;;3.13;;
4597;SDS011;62772;48.646;8.906;2023-04-24T14:51:12;3.57;;;2.60;;
4597;SDS011;62772;48.646;8.906;2023-04-24T14:56:12;6.10;;;2.90;;
4597;SDS011;62772;48.646;8.906;2023-04-24T15:01:13;4.23;;;2.77;;
4597;SDS011;62772;48.646;8.906;2023-04-24T15:06:14;4.30;;;3.17;;
4597;SDS011;62772;48.646;8.906;2023-04-24T15:11:14;6.13;;;3.10;;
4597;SDS011;62772;48.646;8.906;2023-04-24T15:16:14;4.73;;;3.03;;
4597;SDS011;62772;48.646;8.906;2023-04-24T15:21:15;4.13;;;2.50;;
4597;SDS011;62772;48.646;8.906;2023-04-24T15:26:15;5.13;;;2.73;;
4597;SDS011;62772;48.646;8.906;2023-04-24T15:31:16;4.50;;;2.90;;
4597;SDS011;62772;48.646;8.906;2023-04-24T15:36:17;4.70;;;3.33;;
4597;SDS011;62772;48.646;8.906;2023-04-24T15:41:17;5.20;;;3.70;;
4597;SDS011;62772;48.646;8.906;2023-04-24T15:46:18;4.87;;;3.20;;
4597;SDS011;62772;48.646;8.906;2023-04-24T15:51:18;4.20;;;2.90;;
4597;SDS011;62772;48.646;8.906;2023-04-24T15:56:19;4.77;;;2.57;;
4597;SDS011;62772;48.646;8.906;2023-04-24T16:01:19;3.37;;;2.37;;
4597;SDS011;62772;48.646;8.906;2023-04-24T16:06:20;3.60;;;2.50;;
4597;SDS011;62772;48.646;8.906;2023-04-24T16:11:21;3.50;;;2.50;;
4597;SDS011;62772;48.646;8.906;2023-04-24T16:16:21;3.70;;;2.90;;
4597;SDS011;62772;48.646;8.906;2023-04-24T16:21:23;5.80;;;3.23;;
4597;SDS011;62772;48.646;8.906;2023-04-24T16:26:23;5.40;;;3.33;;
4597;SDS011;62772;48.646;8.906;2023-04-24T16:31:24;6.43;;;4.10;;
4597;SDS011;62772;48.646;8.906;2023-04-24T16:36:25;5.60;;;4.20;;
4597;SDS011;62772;48.646;8.906;2023-04-24T16:41:27;3.37;;;2.37;;
4597;SDS011;62772;48.646;8.906;2023-04-24T16:46:28;4.40;;;3.10;;
4597;SDS011;62772;48.646;8.906;2023-04-24T16:51:28;3.87;;;2.40;;
4597;SDS011;62772;48.646;8.906;2023-04-24T16:56:29;3.37;;;2.13;;
4597;SDS011;62772;48.646;8.906;2023-04-24T17:01:29;3.80;;;2.50;;
4597;SDS011;62772;48.646;8.906;2023-04-24T17:06:29;9.33;;;2.90;;
4597;SDS011;62772;48.646;8.906;2023-04-24T17:11:30;4.77;;;2.80;;
4597;SDS011;62772;48.646;8.906;2023-04-24T17:16:30;3.90;;;3.03;;
4597;SDS011;62772;48.646;8.906;2023-04-24T17:21:31;4.37;;;2.90;;
4597;SDS011;62772;48.646;8.906;2023-04-24T17:26:32;4.43;;;2.90;;
4597;SDS011;62772;48.646;8.906;2023-04-24T17:31:32;6.17;;;3.57;;
4597;SDS011;62772;48.646;8.906;2023-04-24T17:36:33;4.17;;;2.90;;
4597;SDS011;62772;48.646;8.906;2023-04-24T17:41:34;6.03;;;3.30;;
4597;SDS011;62772;48.646;8.906;2023-04-24T17:46:34;7.63;;;3.73;;
4597;SDS011;62772;48.646;8.906;2023-04-24T17:51:35;4.33;;;3.30;;
4597;SDS011;62772;48.646;8.906;2023-04-24T17:56:35;6.20;;;3.43;;
4597;SDS011;62772;48.646;8.906;2023-04-24T18:01:36;4.10;;;3.17;;
4597;SDS011;62772;48.646;8.906;2023-04-24T18:06:36;6.73;;;3.83;;
4597;SDS011;62772;48.646;8.906;2023-04-24T18:11:38;8.60;;;4.03;;
4597;SDS011;62772;48.646;8.906;2023-04-24T18:16:39;5.20;;;3.50;;
4597;SDS011;62772;48.646;8.906;2023-04-24T18:21:39;6.90;;;3.50;;
4597;SDS011;62772;48.646;8.906;2023-04-24T18:26:40;5.30;;;3.80;;
4597;SDS011;62772;48.646;8.906;2023-04-24T18:31:40;6.80;;;3.53;;
4597;SDS011;62772;48.646;8.906;2023-04-24T18:36:41;5.23;;;3.67;;
4597;SDS011;62772;48.646;8.906;2023-04-24T18:41:41;8.27;;;4.40;;
4597;SDS011;62772;48.646;8.906;2023-04-24T18:46:42;4.93;;;3.60;;
4597;SDS011;62772;48.646;8.906;2023-04-24T18:51:42;5.73;;;4.30;;
4597;SDS011;62772;48.646;8.906;2023-04-24T18:56:43;8.03;;;5.17;;
4597;SDS011;62772;48.646;8.906;2023-04-24T19:01:43;7.50;;;4.53;;
4597;SDS011;62772;48.646;8.906;2023-04-24T19:06:44;7.40;;;4.70;;
4597;SDS011;62772;48.646;8.906;2023-04-24T19:11:45;6.10;;;4.10;;
4597;SDS011;62772;48.646;8.906;2023-04-24T19:16:45;5.13;;;4.13;;
4597;SDS011;62772;48.646;8.906;2023-04-24T19:21:46;4.30;;;3.30;;
4597;SDS011;62772;48.646;8.906;2023-04-24T19:26:46;6.20;;;4.20;;
4597;SDS011;62772;48.646;8.906;2023-04-24T19:31:47;6.70;;;4.00;;
4597;SDS011;62772;48.646;8.906;2023-04-24T19:36:47;6.50;;;4.40;;
4597;SDS011;62772;48.646;8.906;2023-04-24T19:41:48;6.57;;;3.70;;
4597;SDS011;62772;48.646;8.906;2023-04-24T19:46:48;5.50;;;4.07;;
4597;SDS011;62772;48.646;8.906;2023-04-24T19:51:49;5.70;;;4.40;;
4597;SDS011;62772;48.646;8.906;2023-04-24T19:56:49;6.03;;;4.33;;
4597;SDS011;62772;48.646;8.906;2023-04-24T20:01:50;7.80;;;4.70;;
4597;SDS011;62772;48.646;8.906;2023-04-24T20:06:51;8.80;;;5.60;;
4597;SDS011;62772;48.646;8.906;2023-04-24T20:11:52;6.83;;;4.20;;
4597;SDS011;62772;48.646;8.906;2023-04-24T20:16:53;6.50;;;4.07;;
4597;SDS011;62772;48.646;8.906;2023-04-24T20:21:54;5.63;;;3.63;;
4597;SDS011;62772;48.646;8.906;2023-04-24T20:26:54;5.30;;;3.43;;
4597;SDS011;62772;48.646;8.906;2023-04-24T20:31:56;6.13;;;4.00;;
4597;SDS011;62772;48.646;8.906;2023-04-24T20:36:56;5.40;;;3.80;;
4597;SDS011;62772;48.646;8.906;2023-04-24T20:41:58;5.37;;;3.50;;
4597;SDS011;62772;48.646;8.906;2023-04-24T20:46:59;5.47;;;3.70;;
4597;SDS011;62772;48.646;8.906;2023-04-24T20:51:59;5.33;;;3.97;;
4597;SDS011;62772;48.646;8.906;2023-04-24T20:57:00;10.93;;;4.80;;
4597;SDS011;62772;48.646;8.906;2023-04-24T21:02:00;7.33;;;4.70;;
4597;SDS011;62772;48.646;8.906;2023-04-24T21:07:01;7.33;;;4.50;;
4597;SDS011;62772;48.646;8.906;2023-04-24T21:12:02;8.37;;;4.27;;
4597;SDS011;62772;48.646;8.906;2023-04-24T21:17:02;5.53;;;3.80;;
4597;SDS011;62772;48.646;8.906;2023-04-24T21:22:03;8.23;;;4.03;;
4597;SDS011;62772;48.646;8.906;2023-04-24T21:27:03;6.23;;;3.60;;
4597;SDS011;62772;48.646;8.906;2023-04-24T21:32:04;6.03;;;3.87;;
4597;SDS011;62772;48.646;8.906;2023-04-24T21:37:04;5.80;;;4.37;;
4597;SDS011;62772;48.646;8.906;2023-04-24T21:42:05;6.37;;;4.13;;
4597;SDS011;62772;48.646;8.906;2023-04-24T21:47:05;6.23;;;4.03;;
4597;SDS011;62772;48.646;8.906;2023-04-24T21:52:06;6.13;;;4.27;;
4597;SDS011;62772;48.646;8.906;2023-04-24T21:57:06;8.70;;;4.67;;
4597;SDS011;62772;48.646;8.906;2023-04-24T22:02:07;8.97;;;4.43;;
4597;SDS011;62772;48.646;8.906;2023-04-24T22:07:07;7.80;;;4.80;;
4597;SDS011;62772;48.646;8.906;2023-04-24T22:12:08;6.00;;;3.87;;
4597;SDS011;62772;48.646;8.906;2023-04-24T22:17:08;7.60;;;5.07;;
4597;SDS011;62772;48.646;8.906;2023-04-24T22:22:09;6.50;;;4.37;;
4597;SDS011;62772;48.646;8.906;2023-04-24T22:27:10;6.00;;;4.40;;
4597;SDS011;62772;48.646;8.906;2023-04-24T22:32:10;7.40;;;4.17;;
4597;SDS011;62772;48.646;8.906;2023-04-24T22:37:11;8.70;;;4.57;;
4597;SDS011;62772;48.646;8.906;2023-04-24T22:42:12;5.97;;;4.30;;
4597;SDS011;62772;48.646;8.906;2023-04-24T22:47:13;6.67;;;4.43;;
4597;SDS011;62772;48.646;8.906;2023-04-24T22:52:17;6.43;;;4.77;;
4597;SDS011;62772;48.646;8.906;2023-04-24T22:57:17;8.30;;;4.87;;
4597;SDS011;62772;48.646;8.906;2023-04-24T23:02:17;12.90;;;5.47;;
4597;SDS011;62772;48.646;8.906;2023-04-24T23:07:18;6.53;;;4.90;;
4597;SDS011;62772;48.646;8.906;2023-04-24T23:12:18;9.93;;;5.67;;
4597;SDS011;62772;48.646;8.906;2023-04-24T23:17:19;8.87;;;6.50;;
4597;SDS011;62772;48.646;8.906;2023-04-24T23:22:19;9.40;;;5.50;;
4597;SDS011;62772;48.646;8.906;2023-04-24T23:27:20;9.50;;;5.40;;
4597;SDS011;62772;48.646;8.906;2023-04-24T23:32:20;8.10;;;4.83;;
4597;SDS011;62772;48.646;8.906;2023-04-24T23:37:21;7.50;;;5.07;;
4597;SDS011;62772;48.646;8.906;2023-04-24T23:42:21;6.70;;;4.60;;
4597;SDS011;62772;48.646;8.906;2023-04-24T23:47:22;7.00;;;4.40;;
4597;SDS011;62772;48.646;8.906;2023-04-24T23:52:22;6.90;;;4.87;;
4597;SDS011;62772;48.646;8.906;2023-04-24T23:57:23;7.73;;;5.43;;
